Time;durP1;ratioP1;P1;durP2;ratioP2;P2;SDS_P1;SDS_P2;PMS_P1;PMS_P2;Temp;Humidity;BMP_temperature;BMP_pressure;BME280_temperature;BME280_humidity;BME280_pressure;Samples;Min_cycle;Max_cycle;Signal;HPM_P1;HPM_P2
2023/05/17 00:01:14;;;;;;;21.60;19.60;;;;;;;-128.00;-1.00;-1.00;105937;1250;1003892;-71
2023/05/17 00:03:41;;;;;;;19.70;17.80;;;;;;;-128.00;-1.00;-1.00;105899;1249;1004396;-70
2023/05/17 00:06:07;;;;;;;20.50;18.50;;;;;;;-128.00;-1.00;-1.00;105918;1250;1004936;-71
2023/05/17 00:08:34;;;;;;;21.70;19.70;;;;;;;-128.00;-1.00;-1.00;105929;1249;1003893;-71
2023/05/17 00:11:00;;;;;;;21.70;19.50;;;;;;;-128.00;-1.00;-1.00;105908;1249;1005012;-71
2023/05/17 00:13:27;;;;;;;22.10;20.10;;;;;;;-128.00;-1.00;-1.00;105530;1252;1004137;-70
2023/05/17 00:15:53;;;;;;;22.50;20.30;;;;;;;-128.00;-1.00;-1.00;105690;1252;1004049;-71
2023/05/17 00:18:20;;;;;;;22.00;20.00;;;;;;;-128.00;-1.00;-1.00;105701;1252;1003752;-71
2023/05/17 00:20:46;;;;;;;20.70;18.80;;;;;;;-128.00;-1.00;-1.00;105732;1252;1004304;-71
2023/05/17 00:23:13;;;;;;;21.70;19.60;;;;;;;-128.00;-1.00;-1.00;105566;1252;1004563;-71
2023/05/17 00:25:39;;;;;;;24.10;21.70;;;;;;;-128.00;-1.00;-1.00;105695;1252;1005150;-71
2023/05/17 00:28:06;;;;;;;27.40;24.70;;;;;;;-128.00;-1.00;-1.00;105718;1252;1004118;-71
2023/05/17 00:30:32;;;;;;;29.50;26.40;;;;;;;-128.00;-1.00;-1.00;105660;1253;1004380;-70
2023/05/17 00:32:59;;;;;;;27.50;24.70;;;;;;;-128.00;-1.00;-1.00;105688;1252;1003926;-71
2023/05/17 00:35:25;;;;;;;27.20;24.50;;;;;;;-128.00;-1.00;-1.00;105764;1253;1005013;-71
2023/05/17 00:37:52;;;;;;;26.90;24.10;;;;;;;-128.00;-1.00;-1.00;105690;1252;1004056;-71
2023/05/17 00:40:18;;;;;;;26.10;23.50;;;;;;;-128.00;-1.00;-1.00;105701;1253;1004207;-71
2023/05/17 00:42:45;;;;;;;27.60;24.70;;;;;;;-128.00;-1.00;-1.00;105569;1251;1004416;-71
2023/05/17 00:45:12;;;;;;;25.90;23.20;;;;;;;-128.00;-1.00;-1.00;105583;1253;1004239;-71
2023/05/17 00:47:38;;;;;;;22.50;20.30;;;;;;;-128.00;-1.00;-1.00;105699;1252;1004324;-70
2023/05/17 00:50:05;;;;;;;22.00;19.90;;;;;;;-128.00;-1.00;-1.00;105512;1254;1003789;-71
2023/05/17 00:52:32;;;;;;;21.30;19.40;;;;;;;-128.00;-1.00;-1.00;105700;1252;1004364;-71
2023/05/17 00:54:58;;;;;;;21.30;19.20;;;;;;;-128.00;-1.00;-1.00;105706;1252;1003157;-70
2023/05/17 00:57:25;;;;;;;21.30;19.20;;;;;;;-128.00;-1.00;-1.00;105664;1256;1004773;-71
2023/05/17 00:59:54;;;;;;;21.10;18.90;;;;;;;-128.00;-1.00;-1.00;105711;1252;1003974;-71
2023/05/17 01:02:21;;;;;;;22.80;20.50;;;;;;;-128.00;-1.00;-1.00;105541;1253;1060849;-71
2023/05/17 01:04:48;;;;;;;21.00;19.00;;;;;;;-128.00;-1.00;-1.00;105685;1253;1004466;-71
2023/05/17 01:07:15;;;;;;;18.90;17.30;;;;;;;-128.00;-1.00;-1.00;105728;1252;1003997;-71
2023/05/17 01:09:42;;;;;;;21.10;19.10;;;;;;;-128.00;-1.00;-1.00;105706;1252;1004138;-71
2023/05/17 01:12:27;;;;;;;18.60;16.90;;;;;;;-128.00;-1.00;-1.00;105708;1253;1003984;-71
2023/05/17 01:15:05;;;;;;;19.50;17.60;;;;;;;-128.00;-1.00;-1.00;105878;1250;1060557;-71
2023/05/17 01:17:35;;;;;;;20.70;18.60;;;;;;;-128.00;-1.00;-1.00;105931;1250;1056325;-71
2023/05/17 01:20:05;;;;;;;18.00;16.30;;;;;;;-128.00;-1.00;-1.00;105863;1250;1059762;-71
2023/05/17 01:22:52;;;;;;;18.10;16.50;;;;;;;-128.00;-1.00;-1.00;105882;1250;1047051;-71
2023/05/17 01:25:27;;;;;;;19.40;17.50;;;;;;;-128.00;-1.00;-1.00;105888;1251;1046704;-72
2023/05/17 01:27:58;;;;;;;20.00;18.10;;;;;;;-128.00;-1.00;-1.00;105907;1251;1062618;-72
2023/05/17 01:30:25;;;;;;;19.10;17.20;;;;;;;-128.00;-1.00;-1.00;105927;1250;1057525;-71
2023/05/17 01:32:56;;;;;;;21.00;18.90;;;;;;;-128.00;-1.00;-1.00;105918;1250;1005494;-71
2023/05/17 01:35:22;;;;;;;20.70;18.60;;;;;;;-128.00;-1.00;-1.00;105869;1249;1045790;-71
2023/05/17 01:37:51;;;;;;;17.80;16.20;;;;;;;-128.00;-1.00;-1.00;105936;1250;1004495;-71
2023/05/17 01:40:19;;;;;;;19.80;17.90;;;;;;;-128.00;-1.00;-1.00;105891;1251;1061278;-71
2023/05/17 01:42:49;;;;;;;18.60;16.80;;;;;;;-128.00;-1.00;-1.00;105884;1249;1003728;-71
2023/05/17 01:45:30;;;;;;;17.60;15.80;;;;;;;-128.00;-1.00;-1.00;105868;1250;1059337;-71
2023/05/17 01:48:22;;;;;;;16.80;15.30;;;;;;;-128.00;-1.00;-1.00;105658;1251;1045097;-71
2023/05/17 01:50:53;;;;;;;17.60;15.90;;;;;;;-128.00;-1.00;-1.00;105644;1249;1046635;-71
2023/05/17 01:53:29;;;;;;;15.40;14.00;;;;;;;-128.00;-1.00;-1.00;105912;1250;1061479;-70
2023/05/17 01:56:32;;;;;;;15.80;13.60;;;;;;;-128.00;-1.00;-1.00;105953;1250;1055004;-71
2023/05/17 01:59:01;;;;;;;16.50;14.90;;;;;;;-128.00;-1.00;-1.00;105170;1259;1060036;-71
2023/05/17 02:01:30;;;;;;;15.80;14.30;;;;;;;-128.00;-1.00;-1.00;105231;1258;1046213;-70
2023/05/17 02:03:57;;;;;;;17.20;15.60;;;;;;;-128.00;-1.00;-1.00;105252;1258;1047002;-70
2023/05/17 02:06:24;;;;;;;14.80;13.30;;;;;;;-128.00;-1.00;-1.00;105253;1260;1004122;-71
2023/05/17 02:08:50;;;;;;;16.10;14.70;;;;;;;-128.00;-1.00;-1.00;105222;1259;1004676;-71
2023/05/17 02:11:16;;;;;;;15.70;14.10;;;;;;;-128.00;-1.00;-1.00;105204;1259;1004352;-71
2023/05/17 02:13:43;;;;;;;19.20;12.90;;;;;;;-128.00;-1.00;-1.00;105187;1258;1004064;-71
2023/05/17 02:16:10;;;;;;;15.00;13.70;;;;;;;-128.00;-1.00;-1.00;105263;1258;1003566;-72
2023/05/17 02:18:39;;;;;;;16.60;15.00;;;;;;;-128.00;-1.00;-1.00;105229;1260;1004696;-72
2023/05/17 02:21:05;;;;;;;15.80;14.40;;;;;;;-128.00;-1.00;-1.00;105228;1259;1005115;-71
2023/05/17 02:23:31;;;;;;;17.00;15.30;;;;;;;-128.00;-1.00;-1.00;105211;1258;1004268;-71
2023/05/17 02:25:58;;;;;;;19.20;17.30;;;;;;;-128.00;-1.00;-1.00;105228;1258;1004240;-72
2023/05/17 02:28:26;;;;;;;19.50;17.60;;;;;;;-128.00;-1.00;-1.00;105264;1259;1004961;-72
2023/05/17 02:30:53;;;;;;;19.60;17.70;;;;;;;-128.00;-1.00;-1.00;105161;1258;1004598;-72
2023/05/17 02:33:19;;;;;;;21.20;19.10;;;;;;;-128.00;-1.00;-1.00;105219;1259;1004657;-71
2023/05/17 02:35:48;;;;;;;20.40;18.30;;;;;;;-128.00;-1.00;-1.00;105608;1253;1004648;-72
2023/05/17 02:38:15;;;;;;;21.30;19.10;;;;;;;-128.00;-1.00;-1.00;105885;1250;1046497;-71
2023/05/17 02:40:41;;;;;;;21.60;19.40;;;;;;;-128.00;-1.00;-1.00;105907;1251;1004673;-72
2023/05/17 02:43:08;;;;;;;22.40;20.10;;;;;;;-128.00;-1.00;-1.00;105918;1251;1004659;-72
2023/05/17 02:45:34;;;;;;;22.10;19.90;;;;;;;-128.00;-1.00;-1.00;105759;1249;1004800;-72
2023/05/17 02:48:01;;;;;;;21.60;19.50;;;;;;;-128.00;-1.00;-1.00;105687;1250;1004819;-72
2023/05/17 02:50:27;;;;;;;20.60;18.40;;;;;;;-128.00;-1.00;-1.00;105870;1250;1005201;-72
2023/05/17 02:52:54;;;;;;;19.30;17.50;;;;;;;-128.00;-1.00;-1.00;105891;1250;1004764;-72
2023/05/17 02:55:20;;;;;;;20.00;18.00;;;;;;;-128.00;-1.00;-1.00;105922;1250;1003992;-72
2023/05/17 02:57:47;;;;;;;18.00;16.20;;;;;;;-128.00;-1.00;-1.00;105924;1249;1004746;-72
2023/05/17 03:00:15;;;;;;;18.20;16.40;;;;;;;-128.00;-1.00;-1.00;105895;1250;1004707;-72
2023/05/17 03:02:42;;;;;;;18.70;16.80;;;;;;;-128.00;-1.00;-1.00;105932;1250;1045530;-72
2023/05/17 03:05:09;;;;;;;19.10;17.20;;;;;;;-128.00;-1.00;-1.00;105939;1249;1003840;-72
2023/05/17 03:07:35;;;;;;;17.00;15.40;;;;;;;-128.00;-1.00;-1.00;105944;1250;1004595;-72
2023/05/17 03:10:02;;;;;;;16.10;14.60;;;;;;;-128.00;-1.00;-1.00;105937;1249;1004887;-72
2023/05/17 03:12:29;;;;;;;14.70;13.30;;;;;;;-128.00;-1.00;-1.00;105910;1250;1004892;-72
2023/05/17 03:14:55;;;;;;;14.40;13.20;;;;;;;-128.00;-1.00;-1.00;105910;1250;1004365;-72
2023/05/17 03:17:22;;;;;;;15.30;14.00;;;;;;;-128.00;-1.00;-1.00;105680;1250;1004071;-72
2023/05/17 03:19:48;;;;;;;14.60;13.20;;;;;;;-128.00;-1.00;-1.00;105942;1250;1004474;-72
2023/05/17 03:22:14;;;;;;;16.00;14.60;;;;;;;-128.00;-1.00;-1.00;105952;1250;1004168;-71
2023/05/17 03:24:41;;;;;;;17.30;15.70;;;;;;;-128.00;-1.00;-1.00;105916;1250;1003684;-71
2023/05/17 03:27:07;;;;;;;16.90;15.20;;;;;;;-128.00;-1.00;-1.00;105919;1250;1004644;-71
2023/05/17 03:29:34;;;;;;;15.90;14.30;;;;;;;-128.00;-1.00;-1.00;105920;1250;1004216;-72
2023/05/17 03:32:00;;;;;;;16.80;15.30;;;;;;;-128.00;-1.00;-1.00;105933;1250;1004572;-72
2023/05/17 03:34:27;;;;;;;18.10;16.30;;;;;;;-128.00;-1.00;-1.00;105491;1255;1003943;-71
2023/05/17 03:36:53;;;;;;;17.50;15.90;;;;;;;-128.00;-1.00;-1.00;105497;1256;1004115;-72
2023/05/17 03:39:20;;;;;;;17.10;15.40;;;;;;;-128.00;-1.00;-1.00;105497;1257;1004009;-72
2023/05/17 03:41:46;;;;;;;16.80;15.40;;;;;;;-128.00;-1.00;-1.00;105400;1255;1004648;-72
2023/05/17 03:44:14;;;;;;;16.60;15.10;;;;;;;-128.00;-1.00;-1.00;105520;1257;1004459;-72
2023/05/17 03:46:40;;;;;;;17.20;15.70;;;;;;;-128.00;-1.00;-1.00;105547;1256;1004507;-72
2023/05/17 03:49:07;;;;;;;16.40;15.00;;;;;;;-128.00;-1.00;-1.00;105272;1255;1005372;-72
2023/05/17 03:51:33;;;;;;;15.10;13.70;;;;;;;-128.00;-1.00;-1.00;105499;1255;1004217;-72
2023/05/17 03:54:00;;;;;;;16.20;14.60;;;;;;;-128.00;-1.00;-1.00;105263;1254;1004310;-72
2023/05/17 03:56:27;;;;;;;13.80;12.70;;;;;;;-128.00;-1.00;-1.00;105234;1256;1004250;-72
2023/05/17 03:58:53;;;;;;;13.20;12.10;;;;;;;-128.00;-1.00;-1.00;105457;1255;1004112;-72
2023/05/17 04:01:20;;;;;;;14.30;13.00;;;;;;;-128.00;-1.00;-1.00;105448;1256;1003621;-72
2023/05/17 04:03:46;;;;;;;13.30;12.30;;;;;;;-128.00;-1.00;-1.00;105449;1256;1004219;-72
2023/05/17 04:06:16;;;;;;;13.00;12.00;;;;;;;-128.00;-1.00;-1.00;105827;1251;1004016;-72
2023/05/17 04:08:42;;;;;;;11.20;10.30;;;;;;;-128.00;-1.00;-1.00;105952;1250;1061137;-72
2023/05/17 04:11:11;;;;;;;12.90;11.80;;;;;;;-128.00;-1.00;-1.00;105928;1250;1003557;-72
2023/05/17 04:13:40;;;;;;;11.50;10.50;;;;;;;-128.00;-1.00;-1.00;105900;1250;1058879;-72
2023/05/17 04:16:08;;;;;;;12.30;11.30;;;;;;;-128.00;-1.00;-1.00;105750;1250;1046037;-72
2023/05/17 04:18:35;;;;;;;10.80;9.80;;;;;;;-128.00;-1.00;-1.00;105787;1250;1003977;-73
2023/05/17 04:21:02;;;;;;;10.60;9.70;;;;;;;-128.00;-1.00;-1.00;105933;1251;1004260;-73
2023/05/17 04:23:30;;;;;;;11.20;10.30;;;;;;;-128.00;-1.00;-1.00;105961;1250;1004012;-73
2023/05/17 04:25:57;;;;;;;11.70;10.70;;;;;;;-128.00;-1.00;-1.00;105576;1250;1004203;-73
2023/05/17 04:28:24;;;;;;;11.70;10.70;;;;;;;-128.00;-1.00;-1.00;105914;1250;1004047;-73
2023/05/17 04:30:51;;;;;;;11.00;10.10;;;;;;;-128.00;-1.00;-1.00;105960;1251;1003848;-73
2023/05/17 04:33:18;;;;;;;12.00;10.90;;;;;;;-128.00;-1.00;-1.00;105911;1249;1003848;-72
2023/05/17 04:35:45;;;;;;;11.60;10.70;;;;;;;-128.00;-1.00;-1.00;105626;1251;1005215;-73
2023/05/17 04:38:12;;;;;;;11.50;10.60;;;;;;;-128.00;-1.00;-1.00;105929;1250;1004301;-73
2023/05/17 04:40:39;;;;;;;13.00;11.90;;;;;;;-128.00;-1.00;-1.00;105909;1250;1004302;-73
2023/05/17 04:43:05;;;;;;;12.80;11.80;;;;;;;-128.00;-1.00;-1.00;105946;1253;1003706;-73
2023/05/17 04:45:32;;;;;;;13.20;12.00;;;;;;;-128.00;-1.00;-1.00;105915;1251;1004234;-73
2023/05/17 04:47:59;;;;;;;13.70;12.60;;;;;;;-128.00;-1.00;-1.00;105765;1249;1003642;-74
2023/05/17 04:50:26;;;;;;;13.80;12.60;;;;;;;-128.00;-1.00;-1.00;105891;1250;1004356;-74
2023/05/17 04:52:52;;;;;;;14.00;12.60;;;;;;;-128.00;-1.00;-1.00;105888;1253;1004746;-73
2023/05/17 04:55:19;;;;;;;12.80;11.60;;;;;;;-128.00;-1.00;-1.00;105862;1251;1004499;-72
2023/05/17 04:57:45;;;;;;;12.80;11.70;;;;;;;-128.00;-1.00;-1.00;105874;1251;1003261;-72
2023/05/17 05:00:14;;;;;;;13.80;12.60;;;;;;;-128.00;-1.00;-1.00;105947;1251;1003757;-73
2023/05/17 05:02:41;;;;;;;13.00;11.90;;;;;;;-128.00;-1.00;-1.00;105916;1250;1058735;-73
2023/05/17 05:05:10;;;;;;;12.70;11.50;;;;;;;-128.00;-1.00;-1.00;105924;1251;1004815;-72
2023/05/17 05:07:38;;;;;;;12.30;11.20;;;;;;;-128.00;-1.00;-1.00;105912;1251;1046587;-73
2023/05/17 05:10:05;;;;;;;9.80;9.00;;;;;;;-128.00;-1.00;-1.00;105931;1250;1004559;-72
2023/05/17 05:12:32;;;;;;;10.00;9.20;;;;;;;-128.00;-1.00;-1.00;105393;1251;1005858;-72
2023/05/17 05:14:58;;;;;;;9.10;8.30;;;;;;;-128.00;-1.00;-1.00;105888;1250;1004626;-72
2023/05/17 05:17:25;;;;;;;9.10;8.30;;;;;;;-128.00;-1.00;-1.00;105898;1250;1004197;-72
2023/05/17 05:19:52;;;;;;;8.80;8.10;;;;;;;-128.00;-1.00;-1.00;105929;1250;1004191;-72
2023/05/17 05:22:18;;;;;;;9.10;8.30;;;;;;;-128.00;-1.00;-1.00;105950;1250;1004691;-72
2023/05/17 05:24:44;;;;;;;9.30;8.40;;;;;;;-128.00;-1.00;-1.00;105911;1249;1004260;-72
2023/05/17 05:27:11;;;;;;;8.80;8.10;;;;;;;-128.00;-1.00;-1.00;105907;1251;1003710;-72
2023/05/17 05:29:37;;;;;;;9.70;8.90;;;;;;;-128.00;-1.00;-1.00;105937;1250;1004253;-72
2023/05/17 05:32:04;;;;;;;10.20;9.30;;;;;;;-128.00;-1.00;-1.00;105906;1253;1004622;-72
2023/05/17 05:34:31;;;;;;;11.50;10.60;;;;;;;-128.00;-1.00;-1.00;105928;1251;1004108;-72
2023/05/17 05:36:57;;;;;;;14.70;13.40;;;;;;;-128.00;-1.00;-1.00;105942;1251;1003953;-73
2023/05/17 05:39:24;;;;;;;15.20;13.90;;;;;;;-128.00;-1.00;-1.00;105841;1251;1005053;-72
2023/05/17 05:41:51;;;;;;;17.00;15.50;;;;;;;-128.00;-1.00;-1.00;105899;1250;1003811;-72
2023/05/17 05:44:17;;;;;;;16.30;14.70;;;;;;;-128.00;-1.00;-1.00;105906;1251;1004297;-72
2023/05/17 05:46:44;;;;;;;15.40;14.10;;;;;;;-128.00;-1.00;-1.00;105863;1250;1003489;-72
2023/05/17 05:49:10;;;;;;;15.10;13.80;;;;;;;-128.00;-1.00;-1.00;105904;1251;1006484;-71
2023/05/17 05:51:37;;;;;;;14.20;13.00;;;;;;;-128.00;-1.00;-1.00;105864;1251;1003581;-72
2023/05/17 05:54:03;;;;;;;14.30;12.90;;;;;;;-128.00;-1.00;-1.00;105858;1251;1004430;-72
2023/05/17 05:56:29;;;;;;;14.40;13.10;;;;;;;-128.00;-1.00;-1.00;105931;1251;1006086;-73
2023/05/17 05:58:56;;;;;;;15.80;14.40;;;;;;;-128.00;-1.00;-1.00;105646;1252;1004178;-73
2023/05/17 06:01:24;;;;;;;15.80;14.40;;;;;;;-128.00;-1.00;-1.00;105920;1249;1003549;-72
2023/05/17 06:03:50;;;;;;;15.70;14.20;;;;;;;-128.00;-1.00;-1.00;105879;1250;1003675;-71
2023/05/17 06:06:18;;;;;;;14.70;13.30;;;;;;;-128.00;-1.00;-1.00;105918;1251;1005023;-71
2023/05/17 06:08:46;;;;;;;15.50;14.10;;;;;;;-128.00;-1.00;-1.00;105941;1251;1003832;-71
2023/05/17 06:11:13;;;;;;;14.00;12.70;;;;;;;-128.00;-1.00;-1.00;105769;1256;1003627;-72
2023/05/17 06:13:39;;;;;;;13.40;12.30;;;;;;;-128.00;-1.00;-1.00;105885;1251;1005116;-71
2023/05/17 06:16:06;;;;;;;13.40;12.30;;;;;;;-128.00;-1.00;-1.00;105844;1250;1004720;-71
2023/05/17 06:18:33;;;;;;;13.70;12.60;;;;;;;-128.00;-1.00;-1.00;105904;1251;1004247;-71
2023/05/17 06:20:59;;;;;;;12.90;11.70;;;;;;;-128.00;-1.00;-1.00;105859;1253;1004347;-78
2023/05/17 06:23:26;;;;;;;13.60;12.40;;;;;;;-128.00;-1.00;-1.00;105762;1251;1003740;-78
2023/05/17 06:25:52;;;;;;;14.50;13.20;;;;;;;-128.00;-1.00;-1.00;105889;1250;1004046;-84
2023/05/17 06:28:19;;;;;;;14.10;12.80;;;;;;;-128.00;-1.00;-1.00;105591;1251;1004730;-81
2023/05/17 06:30:45;;;;;;;14.50;13.20;;;;;;;-128.00;-1.00;-1.00;105422;1256;1004628;-80
2023/05/17 06:33:12;;;;;;;15.30;13.90;;;;;;;-128.00;-1.00;-1.00;105685;1251;1005058;-79
2023/05/17 06:35:38;;;;;;;14.60;13.30;;;;;;;-128.00;-1.00;-1.00;105633;1251;1003374;-80
2023/05/17 06:38:05;;;;;;;13.00;11.90;;;;;;;-128.00;-1.00;-1.00;105532;1251;1004107;-79
2023/05/17 06:40:31;;;;;;;13.50;12.30;;;;;;;-128.00;-1.00;-1.00;105706;1255;1004196;-78
2023/05/17 06:42:58;;;;;;;14.20;12.90;;;;;;;-128.00;-1.00;-1.00;105681;1251;1004073;-76
2023/05/17 06:45:26;;;;;;;14.90;13.60;;;;;;;-128.00;-1.00;-1.00;105698;1251;1004127;-79
2023/05/17 06:47:52;;;;;;;14.80;13.40;;;;;;;-128.00;-1.00;-1.00;105434;1252;1003526;-77
2023/05/17 06:50:19;;;;;;;14.00;12.80;;;;;;;-128.00;-1.00;-1.00;105672;1251;1003849;-78
2023/05/17 06:52:45;;;;;;;15.10;13.80;;;;;;;-128.00;-1.00;-1.00;105678;1251;1003877;-78
2023/05/17 06:55:12;;;;;;;14.30;12.90;;;;;;;-128.00;-1.00;-1.00;105432;1251;1004278;-85
2023/05/17 06:57:38;;;;;;;13.80;12.50;;;;;;;-128.00;-1.00;-1.00;105688;1251;1004956;-75
2023/05/17 07:00:09;;;;;;;13.30;12.20;;;;;;;-128.00;-1.00;-1.00;105689;1251;1003706;-74
2023/05/17 07:02:36;;;;;;;13.20;12.00;;;;;;;-128.00;-1.00;-1.00;105720;1251;1055218;-76
2023/05/17 07:05:06;;;;;;;13.20;12.00;;;;;;;-128.00;-1.00;-1.00;105702;1251;1004991;-72
2023/05/17 07:07:32;;;;;;;12.80;11.60;;;;;;;-128.00;-1.00;-1.00;105691;1255;1045933;-72
2023/05/17 07:09:59;;;;;;;12.80;11.70;;;;;;;-128.00;-1.00;-1.00;105686;1251;1003333;-77
2023/05/17 07:12:26;;;;;;;11.90;10.80;;;;;;;-128.00;-1.00;-1.00;105673;1251;1003462;-75
2023/05/17 07:14:52;;;;;;;14.40;13.00;;;;;;;-128.00;-1.00;-1.00;105682;1253;1004306;-76
2023/05/17 07:17:19;;;;;;;13.50;12.20;;;;;;;-128.00;-1.00;-1.00;105463;1251;1003730;-77
2023/05/17 07:19:49;;;;;;;13.70;12.40;;;;;;;-128.00;-1.00;-1.00;105681;1251;1004051;-80
2023/05/17 07:22:16;;;;;;;13.30;12.10;;;;;;;-128.00;-1.00;-1.00;105526;1251;1046468;-76
2023/05/17 07:24:45;;;;;;;12.00;10.90;;;;;;;-128.00;-1.00;-1.00;105673;1251;1004302;-78
2023/05/17 07:27:11;;;;;;;14.20;12.90;;;;;;;-128.00;-1.00;-1.00;105669;1251;1004813;-78
2023/05/17 07:29:38;;;;;;;13.50;12.30;;;;;;;-128.00;-1.00;-1.00;105681;1251;1003917;-79
2023/05/17 07:32:05;;;;;;;13.40;12.00;;;;;;;-128.00;-1.00;-1.00;105670;1251;1003334;-74
2023/05/17 07:34:31;;;;;;;12.20;11.10;;;;;;;-128.00;-1.00;-1.00;105710;1255;1003406;-75
2023/05/17 07:36:58;;;;;;;13.20;12.10;;;;;;;-128.00;-1.00;-1.00;105557;1251;1004578;-81
2023/05/17 07:39:24;;;;;;;11.90;10.90;;;;;;;-128.00;-1.00;-1.00;105724;1252;1004338;-78
2023/05/17 07:41:51;;;;;;;11.60;10.50;;;;;;;-128.00;-1.00;-1.00;105688;1251;1004325;-79
2023/05/17 07:44:18;;;;;;;11.60;10.60;;;;;;;-128.00;-1.00;-1.00;105674;1251;1003627;-78
2023/05/17 07:46:44;;;;;;;10.40;9.50;;;;;;;-128.00;-1.00;-1.00;105704;1251;1003311;-78
2023/05/17 07:49:11;;;;;;;10.60;9.60;;;;;;;-128.00;-1.00;-1.00;105700;1251;1003960;-77
2023/05/17 07:51:37;;;;;;;9.10;8.40;;;;;;;-128.00;-1.00;-1.00;105670;1252;1003838;-70
2023/05/17 07:54:04;;;;;;;10.00;9.10;;;;;;;-128.00;-1.00;-1.00;105694;1251;1004887;-82
2023/05/17 07:56:32;;;;;;;10.90;9.90;;;;;;;-128.00;-1.00;-1.00;105672;1251;1004162;-75
2023/05/17 07:58:59;;;;;;;12.20;11.10;;;;;;;-128.00;-1.00;-1.00;105714;1251;1004457;-78
2023/05/17 08:01:26;;;;;;;10.00;9.20;;;;;;;-128.00;-1.00;-1.00;105683;1251;1003942;-78
2023/05/17 08:03:52;;;;;;;9.90;8.90;;;;;;;-128.00;-1.00;-1.00;105529;1251;1004729;-77
2023/05/17 08:06:19;;;;;;;11.20;10.30;;;;;;;-128.00;-1.00;-1.00;105515;1251;1005036;-77
2023/05/17 08:08:45;;;;;;;12.00;10.80;;;;;;;-128.00;-1.00;-1.00;105743;1251;1005043;-78
2023/05/17 08:11:13;;;;;;;11.60;10.70;;;;;;;-128.00;-1.00;-1.00;105769;1251;1004005;-71
2023/05/17 08:13:40;;;;;;;9.60;8.70;;;;;;;-128.00;-1.00;-1.00;105682;1251;1004941;-75
2023/05/17 08:16:08;;;;;;;9.80;8.90;;;;;;;-128.00;-1.00;-1.00;105671;1251;1003628;-75
2023/05/17 08:18:36;;;;;;;9.80;8.90;;;;;;;-128.00;-1.00;-1.00;105724;1251;1005452;-74
2023/05/17 08:21:03;;;;;;;9.20;8.50;;;;;;;-128.00;-1.00;-1.00;105649;1251;1004137;-72
2023/05/17 08:23:30;;;;;;;9.80;9.00;;;;;;;-128.00;-1.00;-1.00;105740;1251;1003794;-69
2023/05/17 08:25:56;;;;;;;8.20;7.40;;;;;;;-128.00;-1.00;-1.00;105691;1251;1004632;-69
2023/05/17 08:28:23;;;;;;;8.00;7.40;;;;;;;-128.00;-1.00;-1.00;105715;1251;1003489;-69
2023/05/17 08:30:49;;;;;;;8.90;8.00;;;;;;;-128.00;-1.00;-1.00;105680;1251;1004718;-69
2023/05/17 08:33:16;;;;;;;9.80;8.10;;;;;;;-128.00;-1.00;-1.00;105698;1251;1004331;-69
2023/05/17 08:35:42;;;;;;;10.40;9.00;;;;;;;-128.00;-1.00;-1.00;105697;1251;1004611;-69
2023/05/17 08:38:09;;;;;;;11.30;10.20;;;;;;;-128.00;-1.00;-1.00;105722;1251;1004686;-69
2023/05/17 08:40:35;;;;;;;12.80;11.70;;;;;;;-128.00;-1.00;-1.00;105737;1251;1004536;-69
2023/05/17 08:43:02;;;;;;;13.80;12.70;;;;;;;-128.00;-1.00;-1.00;105734;1251;1004073;-69
2023/05/17 08:45:30;;;;;;;14.40;13.00;;;;;;;-128.00;-1.00;-1.00;105744;1251;1004167;-68
2023/05/17 08:47:57;;;;;;;13.40;12.20;;;;;;;-128.00;-1.00;-1.00;105716;1251;1004213;-68
2023/05/17 08:50:28;;;;;;;15.10;13.70;;;;;;;-128.00;-1.00;-1.00;105724;1251;1003895;-68
2023/05/17 08:52:55;;;;;;;13.20;12.10;;;;;;;-128.00;-1.00;-1.00;105721;1251;1056412;-69
2023/05/17 08:55:24;;;;;;;14.00;12.70;;;;;;;-128.00;-1.00;-1.00;105678;1251;1004433;-68
2023/05/17 08:57:51;;;;;;;14.20;12.90;;;;;;;-128.00;-1.00;-1.00;105513;1251;1047744;-68
2023/05/17 09:00:20;;;;;;;14.40;12.90;;;;;;;-128.00;-1.00;-1.00;105728;1251;1004970;-69
2023/05/17 09:02:47;;;;;;;13.70;12.50;;;;;;;-128.00;-1.00;-1.00;105758;1251;1061677;-69
2023/05/17 09:05:14;;;;;;;15.80;14.20;;;;;;;-128.00;-1.00;-1.00;105398;1251;1004317;-69
2023/05/17 09:07:41;;;;;;;13.50;12.20;;;;;;;-128.00;-1.00;-1.00;105702;1251;1004141;-69
2023/05/17 09:10:08;;;;;;;15.30;13.80;;;;;;;-128.00;-1.00;-1.00;105680;1251;1004422;-69
2023/05/17 09:12:35;;;;;;;13.40;12.20;;;;;;;-128.00;-1.00;-1.00;105728;1251;1004378;-69
2023/05/17 09:15:13;;;;;;;14.90;13.40;;;;;;;-128.00;-1.00;-1.00;105721;1251;1005080;-69
2023/05/17 09:17:40;;;;;;;14.70;13.40;;;;;;;-128.00;-1.00;-1.00;105663;1251;1055824;-69
2023/05/17 09:20:07;;;;;;;15.90;14.40;;;;;;;-128.00;-1.00;-1.00;105570;1251;1004198;-69
2023/05/17 09:22:35;;;;;;;15.70;14.40;;;;;;;-128.00;-1.00;-1.00;105708;1251;1004235;-70
2023/05/17 09:25:03;;;;;;;14.80;13.40;;;;;;;-128.00;-1.00;-1.00;105779;1251;1003990;-69
2023/05/17 09:27:31;;;;;;;15.40;13.60;;;;;;;-128.00;-1.00;-1.00;105751;1251;1003330;-68
2023/05/17 09:29:57;;;;;;;15.00;13.50;;;;;;;-128.00;-1.00;-1.00;105749;1251;1003734;-69
2023/05/17 09:32:24;;;;;;;14.30;13.00;;;;;;;-128.00;-1.00;-1.00;105739;1251;1003730;-69
2023/05/17 09:34:51;;;;;;;14.90;13.70;;;;;;;-128.00;-1.00;-1.00;105630;1251;1003689;-69
2023/05/17 09:37:18;;;;;;;14.90;13.60;;;;;;;-128.00;-1.00;-1.00;105696;1251;1004459;-69
2023/05/17 09:39:46;;;;;;;16.40;14.90;;;;;;;-128.00;-1.00;-1.00;105701;1251;1004396;-69
2023/05/17 09:42:15;;;;;;;14.60;13.30;;;;;;;-128.00;-1.00;-1.00;105597;1251;1004156;-69
2023/05/17 09:44:46;;;;;;;14.20;12.90;;;;;;;-128.00;-1.00;-1.00;105693;1251;1059468;-69
2023/05/17 09:47:23;;;;;;;14.60;13.30;;;;;;;-128.00;-1.00;-1.00;105700;1251;1046698;-70
2023/05/17 09:49:50;;;;;;;13.40;12.10;;;;;;;-128.00;-1.00;-1.00;105615;1251;1046641;-69
2023/05/17 09:52:19;;;;;;;14.50;12.90;;;;;;;-128.00;-1.00;-1.00;105689;1251;1003397;-69
2023/05/17 09:54:58;;;;;;;11.30;10.30;;;;;;;-128.00;-1.00;-1.00;105716;1251;1056597;-69
2023/05/17 09:57:27;;;;;;;10.30;9.40;;;;;;;-128.00;-1.00;-1.00;105546;1251;1059282;-69
2023/05/17 09:59:56;;;;;;;9.90;8.90;;;;;;;-128.00;-1.00;-1.00;105723;1251;1046674;-69
2023/05/17 10:02:34;;;;;;;10.10;9.30;;;;;;;-128.00;-1.00;-1.00;105700;1251;1046955;-69
2023/05/17 10:05:09;;;;;;;10.60;9.70;;;;;;;-128.00;-1.00;-1.00;105721;1251;1060475;-69
2023/05/17 10:07:36;;;;;;;10.80;9.90;;;;;;;-128.00;-1.00;-1.00;105682;1251;1056731;-69
2023/05/17 10:10:05;;;;;;;11.90;10.80;;;;;;;-128.00;-1.00;-1.00;105767;1251;1004441;-69
2023/05/17 10:12:37;;;;;;;10.90;9.90;;;;;;;-128.00;-1.00;-1.00;105746;1251;1045421;-68
2023/05/17 10:15:06;;;;;;;11.00;10.10;;;;;;;-128.00;-1.00;-1.00;105616;1251;1046696;-68
2023/05/17 10:17:34;;;;;;;9.00;8.20;;;;;;;-128.00;-1.00;-1.00;105688;1251;1061122;-68
2023/05/17 10:20:05;;;;;;;9.90;9.00;;;;;;;-128.00;-1.00;-1.00;105694;1251;1003741;-68
2023/05/17 10:22:32;;;;;;;10.60;9.70;;;;;;;-128.00;-1.00;-1.00;105690;1251;1059026;-69
2023/05/17 10:24:59;;;;;;;10.10;9.10;;;;;;;-128.00;-1.00;-1.00;105724;1251;1004324;-68
2023/05/17 10:27:27;;;;;;;11.10;10.10;;;;;;;-128.00;-1.00;-1.00;105715;1251;1004751;-69
2023/05/17 10:29:54;;;;;;;10.70;9.70;;;;;;;-128.00;-1.00;-1.00;105675;1251;1004457;-69
2023/05/17 10:32:25;;;;;;;11.00;9.90;;;;;;;-128.00;-1.00;-1.00;105766;1251;1004311;-69
2023/05/17 10:34:53;;;;;;;11.40;10.30;;;;;;;-128.00;-1.00;-1.00;105676;1251;1059566;-70
2023/05/17 10:37:20;;;;;;;12.40;11.10;;;;;;;-128.00;-1.00;-1.00;105687;1251;1005633;-69
2023/05/17 10:39:47;;;;;;;12.00;10.80;;;;;;;-128.00;-1.00;-1.00;105766;1251;1003841;-70
2023/05/17 10:42:16;;;;;;;12.10;11.00;;;;;;;-128.00;-1.00;-1.00;105548;1251;1004483;-70
2023/05/17 10:44:43;;;;;;;12.80;11.70;;;;;;;-128.00;-1.00;-1.00;105751;1251;1056331;-69
2023/05/17 10:47:10;;;;;;;16.50;14.80;;;;;;;-128.00;-1.00;-1.00;105694;1251;1004707;-69
2023/05/17 10:49:41;;;;;;;14.00;12.90;;;;;;;-128.00;-1.00;-1.00;105717;1251;1004121;-70
2023/05/17 10:52:20;;;;;;;15.30;13.80;;;;;;;-128.00;-1.00;-1.00;105743;1251;1046754;-70
2023/05/17 10:54:49;;;;;;;15.40;13.90;;;;;;;-128.00;-1.00;-1.00;105722;1251;1061476;-69
2023/05/17 10:57:32;;;;;;;14.60;13.20;;;;;;;-128.00;-1.00;-1.00;105697;1251;1056222;-69
2023/05/17 11:00:03;;;;;;;13.40;12.20;;;;;;;-128.00;-1.00;-1.00;105728;1251;1059841;-70
2023/05/17 11:02:30;;;;;;;14.40;12.80;;;;;;;-128.00;-1.00;-1.00;105675;1251;1046229;-70
2023/05/17 11:04:59;;;;;;;12.90;11.80;;;;;;;-128.00;-1.00;-1.00;105732;1251;1004849;-70
2023/05/17 11:07:30;;;;;;;12.60;11.20;;;;;;;-128.00;-1.00;-1.00;105720;1251;1005012;-69